createdAt,value
2022-11-01T00:00:59.179Z,35.50
2022-11-01T00:03:25.917Z,25.75
2022-11-01T00:05:53.050Z,29.25
2022-11-01T00:08:21.105Z,28.25
2022-11-01T00:10:48.118Z,33.25
2022-11-01T00:13:14.807Z,33.00
2022-11-01T00:15:42.459Z,25.75
2022-11-01T00:18:09.331Z,37.25
2022-11-01T00:20:36.088Z,38.25
2022-11-01T00:23:03.168Z,42.50
2022-11-01T00:25:31.528Z,39.75
2022-11-01T00:27:58.429Z,38.25
2022-11-01T00:30:25.387Z,45.50
2022-11-01T00:32:52.057Z,48.75
2022-11-01T00:35:18.915Z,44.75
2022-11-01T00:37:45.605Z,41.50
2022-11-01T00:40:12.982Z,50.50
2022-11-01T00:42:41.011Z,36.25
2022-11-01T00:45:08.538Z,44.00
2022-11-01T00:47:35.236Z,42.75
2022-11-01T00:50:02.244Z,47.50
2022-11-01T00:52:29.612Z,46.00
2022-11-01T00:54:56.323Z,43.75
2022-11-01T00:57:23.451Z,45.00
2022-11-01T01:02:23.206Z,40.75
2022-11-01T01:04:50.343Z,40.75
2022-11-01T01:07:17.674Z,27.50
2022-11-01T01:09:44.599Z,39.00
2022-11-01T01:12:11.538Z,42.50
2022-11-01T01:14:38.312Z,41.75
2022-11-01T01:17:06.387Z,39.25
2022-11-01T01:19:33.248Z,30.50
2022-11-01T01:21:59.989Z,34.25
2022-11-01T01:24:27.441Z,36.25
2022-11-01T01:26:54.255Z,41.00
2022-11-01T01:29:21.072Z,30.25
2022-11-01T01:31:49.771Z,32.75
2022-11-01T01:34:18.538Z,34.75
2022-11-01T01:36:50.756Z,42.25
2022-11-01T01:39:17.934Z,31.50
2022-11-01T01:41:44.853Z,45.50
2022-11-01T01:45:24.475Z,32.25
2022-11-01T01:47:54.269Z,46.50
2022-11-01T01:50:29.359Z,47.50
2022-11-01T01:53:05.348Z,51.50
2022-11-01T01:55:41.412Z,47.25
2022-11-01T01:58:11.677Z,47.25
2022-11-01T02:00:39.884Z,38.00
2022-11-01T02:03:07.293Z,42.25
2022-11-01T02:05:44.879Z,42.50
2022-11-01T02:08:14.461Z,45.00
2022-11-01T02:10:42.137Z,35.00
2022-11-01T02:13:14.109Z,38.50
2022-11-01T02:15:59.248Z,32.25
2022-11-01T02:18:40.160Z,32.50
2022-11-01T02:21:43.747Z,25.25
2022-11-01T02:24:44.523Z,32.00
2022-11-01T02:27:23.611Z,29.00
2022-11-01T02:30:09.691Z,28.75
2022-11-01T02:33:12.615Z,29.25
2022-11-01T02:35:56.386Z,37.50
2022-11-01T02:38:32.372Z,36.00
2022-11-01T02:41:10.678Z,33.00
2022-11-01T02:43:50.644Z,33.75
2022-11-01T02:46:21.386Z,31.75
2022-11-01T02:48:50.332Z,33.00
2022-11-01T02:51:22.916Z,34.75
2022-11-01T02:53:49.888Z,35.50
2022-11-01T02:56:18.387Z,37.50
2022-11-01T02:58:48.159Z,38.50
2022-11-01T03:01:25.035Z,43.00
2022-11-01T03:03:58.608Z,36.25
2022-11-01T03:06:33.403Z,30.75
2022-11-01T03:09:07.310Z,22.25
2022-11-01T03:11:48.879Z,37.50
2022-11-01T03:14:31.672Z,28.25
2022-11-01T03:17:08.092Z,38.25
2022-11-01T03:19:47.186Z,40.75
2022-11-01T03:22:24.609Z,42.25
2022-11-01T03:25:03.011Z,40.00
2022-11-01T03:27:39.525Z,41.75
2022-11-01T03:30:11.001Z,43.50
2022-11-01T03:32:46.709Z,40.75
2022-11-01T03:35:21.860Z,41.75
2022-11-01T03:37:54.372Z,36.25
2022-11-01T03:40:26.689Z,32.00
2022-11-01T03:43:01.730Z,32.50
2022-11-01T03:45:34.557Z,32.75
2022-11-01T03:48:02.290Z,33.50
2022-11-01T03:50:30.555Z,30.25
2022-11-01T03:52:58.399Z,31.50
2022-11-01T03:55:25.995Z,33.75
2022-11-01T03:57:55.901Z,30.00
2022-11-01T04:00:27.466Z,35.50
2022-11-01T04:02:56.768Z,33.00
2022-11-01T04:05:26.103Z,29.50
2022-11-01T04:08:09.417Z,33.50
2022-11-01T04:10:37.549Z,31.50
2022-11-01T04:13:04.966Z,32.50
2022-11-01T04:15:32.090Z,33.50
2022-11-01T04:18:11.310Z,44.50
2022-11-01T04:20:38.458Z,35.75
2022-11-01T04:23:07.422Z,31.00
2022-11-01T04:25:34.707Z,31.00
2022-11-01T04:28:01.440Z,31.50
2022-11-01T04:30:29.905Z,32.75
2022-11-01T04:32:56.838Z,33.25
2022-11-01T04:35:24.111Z,32.00
2022-11-01T04:37:56.463Z,32.25
2022-11-01T04:40:25.431Z,18.75
2022-11-01T04:42:52.184Z,32.00
2022-11-01T04:45:19.949Z,29.50
2022-11-01T04:47:46.984Z,31.75
2022-11-01T04:50:14.441Z,25.25
2022-11-01T04:52:41.301Z,21.25
2022-11-01T04:55:08.761Z,32.75
2022-11-01T04:57:39.419Z,30.25
2022-11-01T05:00:08.976Z,31.00
2022-11-01T05:02:36.160Z,27.25
2022-11-01T05:05:03.642Z,29.75
2022-11-01T05:07:30.572Z,26.50
2022-11-01T05:09:57.310Z,36.00
2022-11-01T05:12:24.397Z,28.00
2022-11-01T05:14:56.682Z,25.25
2022-11-01T05:17:24.133Z,32.50
2022-11-01T05:19:51.290Z,29.50
2022-11-01T05:22:18.060Z,22.50
2022-11-01T05:24:45.215Z,26.75
2022-11-01T05:27:11.959Z,29.25
2022-11-01T05:29:38.922Z,30.00
2022-11-01T05:32:06.977Z,23.25
2022-11-01T05:34:33.966Z,25.50
2022-11-01T05:37:00.730Z,17.75
2022-11-01T05:39:27.638Z,24.50
2022-11-01T05:41:56.828Z,25.25
2022-11-01T05:44:27.195Z,24.50
2022-11-01T05:46:54.538Z,22.25
2022-11-01T05:49:22.579Z,24.00
2022-11-01T05:51:49.321Z,22.00
2022-11-01T05:54:16.094Z,25.00
2022-11-01T05:56:42.829Z,28.50
2022-11-01T05:59:09.776Z,25.50
2022-11-01T06:01:36.628Z,22.00
2022-11-01T06:04:03.667Z,20.75
2022-11-01T06:06:32.650Z,28.00
2022-11-01T06:09:00.386Z,23.00
2022-11-01T06:11:27.562Z,26.00
2022-11-01T06:13:54.546Z,23.75
2022-11-01T06:16:22.085Z,24.00
2022-11-01T06:18:49.508Z,25.75
2022-11-01T06:21:16.358Z,20.33
2022-11-01T06:23:48.800Z,25.25
2022-11-01T06:26:16.011Z,20.25
2022-11-01T06:28:42.983Z,21.25
2022-11-01T06:31:09.948Z,18.75
2022-11-01T06:33:36.676Z,15.50
2022-11-01T06:36:04.723Z,15.75
2022-11-01T06:38:32.605Z,20.25
2022-11-01T06:41:01.142Z,15.50
2022-11-01T06:43:27.946Z,16.75
2022-11-01T06:45:54.786Z,18.33
2022-11-01T06:48:21.596Z,17.33
2022-11-01T06:50:48.349Z,15.00
2022-11-01T06:53:15.313Z,16.67
2022-11-01T06:55:42.044Z,19.33
2022-11-01T06:58:10.094Z,19.67
2022-11-01T07:00:36.945Z,21.00
2022-11-01T07:03:07.235Z,20.33
2022-11-01T07:05:37.520Z,18.33
2022-11-01T07:08:10.006Z,19.00
2022-11-01T07:10:39.144Z,18.50
2022-11-01T07:13:09.150Z,18.67
2022-11-01T07:15:38.051Z,19.75
2022-11-01T07:18:07.525Z,21.00
2022-11-01T07:20:36.310Z,20.67
2022-11-01T07:23:05.907Z,23.33
2022-11-01T07:25:33.444Z,27.67
2022-11-01T07:28:00.153Z,27.67
2022-11-01T07:30:28.283Z,27.33
2022-11-01T07:32:58.177Z,23.67
2022-11-01T07:35:26.461Z,24.00
2022-11-01T07:37:55.918Z,17.33
2022-11-01T07:40:22.905Z,19.33
2022-11-01T07:42:49.611Z,22.67
2022-11-01T07:45:16.558Z,19.67
2022-11-01T07:47:44.016Z,22.67
2022-11-01T07:50:12.154Z,23.33
2022-11-01T07:52:39.028Z,23.75
2022-11-01T07:55:07.696Z,23.67
2022-11-01T07:57:37.489Z,13.25
2022-11-01T08:00:06.487Z,16.00
2022-11-01T08:02:39.265Z,18.75
2022-11-01T08:05:07.002Z,20.25
2022-11-01T08:07:39.542Z,16.50
2022-11-01T08:10:09.969Z,39.00
2022-11-01T08:12:38.025Z,21.25
2022-11-01T08:15:06.217Z,16.00
2022-11-01T08:17:34.383Z,19.75
2022-11-01T08:20:01.219Z,23.75
2022-11-01T08:22:28.164Z,18.00
2022-11-01T08:24:56.425Z,14.50
2022-11-01T08:27:23.386Z,12.00
2022-11-01T08:29:50.223Z,11.25
2022-11-01T08:32:20.468Z,10.00
2022-11-01T08:34:47.540Z,12.25
2022-11-01T08:37:14.891Z,10.50
2022-11-01T08:39:41.944Z,9.75
2022-11-01T08:42:10.215Z,12.25
2022-11-01T08:44:37.204Z,10.50
2022-11-01T08:47:04.366Z,9.50
2022-11-01T08:49:31.245Z,11.00
2022-11-01T08:51:58.032Z,9.00
2022-11-01T08:54:24.749Z,13.50
2022-11-01T08:56:51.521Z,16.25
2022-11-01T08:59:19.767Z,22.25
2022-11-01T09:01:46.833Z,23.00
2022-11-01T09:04:14.412Z,22.00
2022-11-01T09:06:41.251Z,8.50
2022-11-01T09:09:08.059Z,18.25
2022-11-01T09:11:34.857Z,23.75
2022-11-01T09:14:01.999Z,13.75
2022-11-01T09:16:30.286Z,8.25
2022-11-01T09:18:57.408Z,9.25
2022-11-01T09:21:29.056Z,6.00
2022-11-01T09:23:58.339Z,5.25
2022-11-01T09:26:25.349Z,5.00
2022-11-01T09:28:52.545Z,3.75
2022-11-01T09:31:21.584Z,3.00
2022-11-01T09:33:50.065Z,3.25
2022-11-01T09:36:16.828Z,2.20
2022-11-01T09:38:43.577Z,4.60
2022-11-01T09:41:25.433Z,2.40
2022-11-01T09:43:54.963Z,2.60
2022-11-01T09:46:27.408Z,3.80
2022-11-01T09:48:58.489Z,2.00
2022-11-01T09:51:26.494Z,1.00
2022-11-01T09:53:58.045Z,1.20
2022-11-01T09:56:33.440Z,2.40
2022-11-01T09:59:16.533Z,1.00
2022-11-01T10:01:57.602Z,1.80
2022-11-01T10:05:05.401Z,3.60
2022-11-01T10:07:49.745Z,2.00
2022-11-01T10:10:37.368Z,5.00
2022-11-01T10:13:25.134Z,1.00
2022-11-01T10:16:04.238Z,1.00
2022-11-01T10:18:37.478Z,1.80
2022-11-01T10:21:15.262Z,4.20
2022-11-01T10:23:50.214Z,7.80
2022-11-01T10:26:26.080Z,1.80
2022-11-01T10:29:04.367Z,1.00
2022-11-01T10:31:42.761Z,1.40
2022-11-01T10:34:23.289Z,2.20
2022-11-01T10:37:00.809Z,1.00
2022-11-01T10:39:54.709Z,1.00
2022-11-01T10:42:23.675Z,2.40
2022-11-01T10:44:58.089Z,1.00
2022-11-01T10:47:26.624Z,1.80
2022-11-01T10:50:05.879Z,3.40
2022-11-01T10:52:49.308Z,0.20
2022-11-01T10:55:24.949Z,1.00
2022-11-01T10:57:58.337Z,1.00
2022-11-01T11:00:25.641Z,1.00
2022-11-01T11:02:57.454Z,4.80
2022-11-01T11:05:29.389Z,4.00
2022-11-01T11:07:57.870Z,1.00
2022-11-01T11:10:28.155Z,1.00
2022-11-01T11:13:00.813Z,0.80
2022-11-01T11:15:39.517Z,2.00
2022-11-01T11:18:22.411Z,1.00
2022-11-01T11:20:56.907Z,2.80
2022-11-01T11:23:28.840Z,2.80
2022-11-01T11:26:03.012Z,1.40
2022-11-01T11:28:34.299Z,3.00
2022-11-01T11:31:14.157Z,1.00
2022-11-01T11:33:49.784Z,1.20
2022-11-01T11:36:16.867Z,2.00
2022-11-01T11:38:47.314Z,0.00
2022-11-01T11:41:29.533Z,1.00
2022-11-01T11:43:56.628Z,5.40
2022-11-01T11:46:23.582Z,2.00
2022-11-01T11:48:53.394Z,1.00
2022-11-01T11:51:21.468Z,0.00
2022-11-01T11:54:20.204Z,0.00
2022-11-01T11:56:51.311Z,2.00
2022-11-01T11:59:28.043Z,1.60
2022-11-01T12:01:58.545Z,2.80
2022-11-01T12:04:36.418Z,1.60
2022-11-01T12:07:03.630Z,3.40
2022-11-01T12:09:44.524Z,2.00
2022-11-01T12:12:22.898Z,2.00
2022-11-01T12:14:50.380Z,4.20
2022-11-01T12:17:30.386Z,2.20
2022-11-01T12:20:15.989Z,2.20
2022-11-01T12:22:49.970Z,2.20
2022-11-01T12:25:23.545Z,2.40
2022-11-01T12:27:58.623Z,2.00
2022-11-01T12:30:30.599Z,1.00
2022-11-01T12:33:01.233Z,6.20
2022-11-01T12:35:33.231Z,3.80
2022-11-01T12:38:27.733Z,1.00
2022-11-01T12:41:00.448Z,2.00
2022-11-01T12:43:42.336Z,3.40
2022-11-01T12:46:20.541Z,2.20
2022-11-01T12:48:57.540Z,3.00
2022-11-01T12:51:30.021Z,4.00
2022-11-01T12:54:06.520Z,1.00
2022-11-01T12:56:34.806Z,0.80
2022-11-01T12:59:01.540Z,0.20
2022-11-01T13:01:42.757Z,1.00
2022-11-01T13:04:27.601Z,4.00
2022-11-01T13:07:17.295Z,1.00
2022-11-01T13:09:59.157Z,2.60
2022-11-01T13:12:45.489Z,1.00
2022-11-01T13:15:24.218Z,1.00
2022-11-01T13:18:07.498Z,4.40
2022-11-01T13:20:50.259Z,2.40
2022-11-01T13:23:28.275Z,1.00
2022-11-01T13:26:04.059Z,1.80
2022-11-01T13:29:00.106Z,2.00
2022-11-01T13:31:52.647Z,1.00
2022-11-01T13:34:43.665Z,4.00
2022-11-01T13:37:26.689Z,3.00
2022-11-01T13:40:16.472Z,2.20
2022-11-01T13:42:53.661Z,0.80
2022-11-01T13:45:51.751Z,6.40
2022-11-01T13:48:33.365Z,7.20
2022-11-01T13:51:28.264Z,5.00
2022-11-01T13:54:02.807Z,1.00
2022-11-01T13:56:39.324Z,2.80
2022-11-01T13:59:13.995Z,1.00
2022-11-01T14:01:42.709Z,1.40
2022-11-01T14:04:54.801Z,2.00
2022-11-01T14:07:22.470Z,1.80
2022-11-01T14:09:51.595Z,2.00
2022-11-01T14:12:37.470Z,1.00
2022-11-01T14:15:27.186Z,1.40
2022-11-01T14:18:09.260Z,1.40
2022-11-01T14:20:49.552Z,0.40
2022-11-01T14:23:58.114Z,0.80
2022-11-01T14:26:44.326Z,1.00
2022-11-01T14:29:12.110Z,0.80
2022-11-01T14:31:43.098Z,1.00
2022-11-01T14:34:26.404Z,0.00
2022-11-01T14:37:00.274Z,1.40
2022-11-01T14:39:37.260Z,0.60
2022-11-01T14:42:10.042Z,2.00
2022-11-01T14:44:45.499Z,2.00
2022-11-01T14:47:31.116Z,1.80
2022-11-01T14:50:14.132Z,1.20
2022-11-01T14:52:50.696Z,1.40
2022-11-01T14:55:24.725Z,0.60
2022-11-01T14:58:16.794Z,1.80
2022-11-01T15:00:43.845Z,0.75
2022-11-01T15:03:11.028Z,0.00
2022-11-01T15:05:46.255Z,1.75
2022-11-01T15:08:23.496Z,1.00
2022-11-01T15:10:52.767Z,2.50
2022-11-01T15:13:21.564Z,1.50
2022-11-01T15:16:02.391Z,1.50
2022-11-01T15:18:30.568Z,0.00
2022-11-01T15:21:01.000Z,2.00
2022-11-01T15:23:37.258Z,0.50
2022-11-01T15:26:10.054Z,3.00
2022-11-01T15:28:42.957Z,2.00
2022-11-01T15:31:10.210Z,1.00
2022-11-01T15:33:37.683Z,3.00
2022-11-01T15:36:18.433Z,1.00
2022-11-01T15:38:51.793Z,1.00
2022-11-01T15:41:28.504Z,1.00
2022-11-01T15:43:58.256Z,4.00
2022-11-01T15:46:32.985Z,2.25
2022-11-01T15:49:07.231Z,3.00
2022-11-01T15:51:42.283Z,2.25
2022-11-01T15:54:28.093Z,2.00
2022-11-01T15:57:04.283Z,4.00
2022-11-01T15:59:42.086Z,3.25
2022-11-01T16:02:24.413Z,5.00
2022-11-01T16:04:51.835Z,5.50
2022-11-01T16:07:22.185Z,3.00
2022-11-01T16:09:55.612Z,2.50
2022-11-01T16:12:26.644Z,5.75
2022-11-01T16:15:00.184Z,3.25
2022-11-01T16:17:34.229Z,2.00
2022-11-01T16:20:02.158Z,3.75
2022-11-01T16:22:37.159Z,4.00
2022-11-01T16:25:18.424Z,3.75
2022-11-01T16:27:55.597Z,7.00
2022-11-01T16:30:38.517Z,2.00
2022-11-01T16:33:16.504Z,2.00
2022-11-01T16:35:44.497Z,3.00
2022-11-01T16:38:36.148Z,2.00
2022-11-01T16:41:06.943Z,3.00
2022-11-01T16:43:35.253Z,1.00
2022-11-01T16:46:05.313Z,1.50
2022-11-01T16:48:47.855Z,1.50
2022-11-01T16:51:14.765Z,1.00
2022-11-01T16:53:42.997Z,1.25
2022-11-01T16:56:35.686Z,2.25
2022-11-01T16:59:08.276Z,2.00
2022-11-01T17:01:36.468Z,1.00
2022-11-01T17:04:04.687Z,2.75
2022-11-01T17:06:37.742Z,3.50
2022-11-01T17:09:12.962Z,1.00
2022-11-01T17:11:40.246Z,1.50
2022-11-01T17:14:06.996Z,1.00
2022-11-01T17:16:34.649Z,0.00
2022-11-01T17:19:02.927Z,2.75
2022-11-01T17:21:36.655Z,1.00
2022-11-01T17:24:04.471Z,2.25
2022-11-01T17:26:33.811Z,1.75
2022-11-01T17:29:00.616Z,2.50
2022-11-01T17:31:27.349Z,2.50
2022-11-01T17:33:54.114Z,2.50
2022-11-01T17:36:20.905Z,4.00
2022-11-01T17:38:47.900Z,7.00
2022-11-01T17:41:18.436Z,5.25
2022-11-01T17:43:46.882Z,3.00
2022-11-01T17:46:18.307Z,8.25
2022-11-01T17:48:45.026Z,8.50
2022-11-01T17:51:11.937Z,2.25
2022-11-01T17:53:38.835Z,5.00
2022-11-01T17:56:06.826Z,7.25
2022-11-01T17:58:33.711Z,7.75
2022-11-01T18:01:02.914Z,6.75
2022-11-01T18:03:29.811Z,4.75
2022-11-01T18:05:57.762Z,5.00
2022-11-01T18:08:27.992Z,8.00
2022-11-01T18:11:13.237Z,8.50
2022-11-01T18:14:01.124Z,12.00
2022-11-01T18:16:45.635Z,4.00
2022-11-01T18:19:38.432Z,3.00
2022-11-01T18:22:17.882Z,3.00
2022-11-01T18:24:51.328Z,2.75
2022-11-01T18:27:30.821Z,5.50
2022-11-01T18:29:57.582Z,8.00
2022-11-01T18:32:38.006Z,10.33
2022-11-01T18:35:21.215Z,2.75
2022-11-01T18:38:10.501Z,10.25
2022-11-01T18:40:51.444Z,6.50
2022-11-01T18:43:20.443Z,15.67
2022-11-01T18:46:11.545Z,12.33
2022-11-01T18:48:37.051Z,8.00
2022-11-01T18:51:13.699Z,10.67
2022-11-01T18:53:40.825Z,12.00
2022-11-01T18:56:21.416Z,17.67
2022-11-01T18:58:53.081Z,23.75
2022-11-01T19:01:23.843Z,28.50
2022-11-01T19:04:01.468Z,32.50
2022-11-01T19:06:31.914Z,25.00
2022-11-01T19:09:09.521Z,21.50
2022-11-01T19:11:36.549Z,18.00
2022-11-01T19:14:05.191Z,21.75
2022-11-01T19:16:32.189Z,23.00
2022-11-01T19:19:00.361Z,9.00
2022-11-01T19:21:29.556Z,9.67
2022-11-01T19:23:56.726Z,10.33
2022-11-01T19:26:32.306Z,7.75
2022-11-01T19:28:59.213Z,4.00
2022-11-01T19:31:30.836Z,4.33
2022-11-01T19:34:03.706Z,5.00
2022-11-01T19:39:24.392Z,5.00
2022-11-01T19:41:53.468Z,6.00
2022-11-01T19:44:23.973Z,14.33
2022-11-01T19:46:58.410Z,21.00
2022-11-01T19:49:29.833Z,25.25
2022-11-01T19:52:22.346Z,41.50
2022-11-01T19:54:53.004Z,52.25
2022-11-01T19:57:29.202Z,50.75
2022-11-01T20:00:17.601Z,47.00
2022-11-01T20:02:45.409Z,40.50
2022-11-01T20:05:27.776Z,27.25
2022-11-01T20:08:12.956Z,34.25
2022-11-01T20:10:40.039Z,25.00
2022-11-01T20:13:06.954Z,16.25
2022-11-01T20:15:34.072Z,14.75
2022-11-01T20:18:02.049Z,11.25
2022-11-01T20:20:31.756Z,16.25
2022-11-01T20:23:20.345Z,11.25
2022-11-01T20:25:45.890Z,8.67
2022-11-01T20:28:12.708Z,8.25
2022-11-01T20:30:39.514Z,9.25
2022-11-01T20:33:06.797Z,10.50
2022-11-01T20:35:35.100Z,9.00
2022-11-01T20:38:01.825Z,17.75
2022-11-01T20:40:28.587Z,13.25
2022-11-01T20:42:55.284Z,17.75
2022-11-01T20:45:22.906Z,19.25
2022-11-01T20:47:49.716Z,27.75
2022-11-01T20:50:18.508Z,45.00
2022-11-01T20:52:46.720Z,30.25
2022-11-01T20:55:13.782Z,34.50
2022-11-01T20:57:41.001Z,43.00
2022-11-01T21:00:10.635Z,52.00
2022-11-01T21:02:37.661Z,52.75
2022-11-01T21:05:20.741Z,50.75
2022-11-01T21:07:52.665Z,54.25
2022-11-01T21:10:30.675Z,62.50
2022-11-01T21:12:58.664Z,51.50
2022-11-01T21:15:35.598Z,46.00
2022-11-01T21:18:38.700Z,28.00
2022-11-01T21:21:31.297Z,26.25
2022-11-01T21:24:25.768Z,27.75
2022-11-01T21:27:00.126Z,18.75
2022-11-01T21:29:29.400Z,23.75
2022-11-01T21:31:56.696Z,16.00
2022-11-01T21:34:27.572Z,21.00
2022-11-01T21:36:56.996Z,17.75
2022-11-01T21:39:28.553Z,29.00
2022-11-01T21:41:58.767Z,18.75
2022-11-01T21:44:30.658Z,23.50
2022-11-01T21:47:13.805Z,28.75
2022-11-01T21:49:41.026Z,19.00
2022-11-01T21:54:40.712Z,15.25
2022-11-01T21:57:10.325Z,19.75
2022-11-01T21:59:37.563Z,16.25
2022-11-01T22:02:07.499Z,14.25
2022-11-01T22:04:34.446Z,13.25
2022-11-01T22:07:03.920Z,12.25
2022-11-01T22:09:32.439Z,10.25
2022-11-01T22:12:00.909Z,11.50
2022-11-01T22:14:28.007Z,11.00
2022-11-01T22:16:55.326Z,13.25
2022-11-01T22:19:22.448Z,17.75
2022-11-01T22:21:49.204Z,12.00
2022-11-01T22:24:16.196Z,13.50
2022-11-01T22:26:42.980Z,14.75
2022-11-01T22:29:11.630Z,13.00
2022-11-01T22:31:38.462Z,25.50
2022-11-01T22:34:05.517Z,19.25
2022-11-01T22:36:36.187Z,16.25
2022-11-01T22:39:16.872Z,13.00
2022-11-01T22:41:44.419Z,9.25
2022-11-01T22:44:16.407Z,14.00
2022-11-01T22:46:49.405Z,13.00
2022-11-01T22:49:23.484Z,11.25
2022-11-01T22:51:54.833Z,15.25
2022-11-01T22:54:29.914Z,17.50
2022-11-01T22:57:02.749Z,11.75
2022-11-01T22:59:34.300Z,18.25
2022-11-01T23:02:24.174Z,13.50
2022-11-01T23:05:01.446Z,15.75
2022-11-01T23:07:34.414Z,17.50
2022-11-01T23:10:03.976Z,14.75
2022-11-01T23:12:33.313Z,21.00
2022-11-01T23:15:01.370Z,11.75
2022-11-01T23:17:36.053Z,28.25
2022-11-01T23:20:04.836Z,27.00
2022-11-01T23:22:35.896Z,40.25
2022-11-01T23:25:04.907Z,23.25
2022-11-01T23:27:31.948Z,16.00
2022-11-01T23:30:02.370Z,20.00
2022-11-01T23:32:31.547Z,13.00
2022-11-01T23:35:10.989Z,19.50
2022-11-01T23:37:37.889Z,18.00
2022-11-01T23:40:13.325Z,17.00
2022-11-01T23:42:40.600Z,11.00
2022-11-01T23:45:27.533Z,10.00
2022-11-01T23:47:54.883Z,13.25
2022-11-01T23:50:28.926Z,12.00
2022-11-01T23:52:59.560Z,13.75
2022-11-01T23:55:31.199Z,10.50
2022-11-01T23:58:02.374Z,14.50
